sensor_id;sensor_type;location;lat;lon;timestamp;temperature;humidity
21090;DHT22;10703;51.020;6.128;2023-06-22T00:00:59;18.60;99.90
21090;DHT22;10703;51.020;6.128;2023-06-22T00:03:26;18.60;99.90
21090;DHT22;10703;51.020;6.128;2023-06-22T00:05:53;18.50;99.90
21090;DHT22;10703;51.020;6.128;2023-06-22T00:08:19;18.50;99.90
21090;DHT22;10703;51.020;6.128;2023-06-22T00:10:46;18.40;99.90
21090;DHT22;10703;51.020;6.128;2023-06-22T00:13:13;18.40;99.90
21090;DHT22;10703;51.020;6.128;2023-06-22T00:15:41;18.40;99.90
21090;DHT22;10703;51.020;6.128;2023-06-22T00:18:09;18.40;99.90
21090;DHT22;10703;51.020;6.128;2023-06-22T00:20:36;18.50;99.90
21090;DHT22;10703;51.020;6.128;2023-06-22T00:23:05;18.40;99.90
21090;DHT22;10703;51.020;6.128;2023-06-22T00:25:38;18.50;99.90
21090;DHT22;10703;51.020;6.128;2023-06-22T00:28:07;18.40;99.90
21090;DHT22;10703;51.020;6.128;2023-06-22T00:30:35;18.30;99.90
21090;DHT22;10703;51.020;6.128;2023-06-22T00:33:01;18.30;99.90
21090;DHT22;10703;51.020;6.128;2023-06-22T00:35:28;18.30;99.90
21090;DHT22;10703;51.020;6.128;2023-06-22T00:37:56;18.40;99.90
21090;DHT22;10703;51.020;6.128;2023-06-22T00:40:28;18.40;99.90
21090;DHT22;10703;51.020;6.128;2023-06-22T00:42:55;18.40;99.90
21090;DHT22;10703;51.020;6.128;2023-06-22T00:45:23;18.50;99.90
21090;DHT22;10703;51.020;6.128;2023-06-22T00:47:52;18.50;99.90
21090;DHT22;10703;51.020;6.128;2023-06-22T00:50:22;18.50;99.90
21090;DHT22;10703;51.020;6.128;2023-06-22T00:52:52;18.60;99.90
21090;DHT22;10703;51.020;6.128;2023-06-22T00:55:20;18.60;99.90
21090;DHT22;10703;51.020;6.128;2023-06-22T00:57:48;18.60;99.90
21090;DHT22;10703;51.020;6.128;2023-06-22T01:00:15;18.60;99.90
21090;DHT22;10703;51.020;6.128;2023-06-22T01:02:44;18.60;99.90
21090;DHT22;10703;51.020;6.128;2023-06-22T01:05:13;18.50;99.90
21090;DHT22;10703;51.020;6.128;2023-06-22T01:10:47;18.50;99.90
21090;DHT22;10703;51.020;6.128;2023-06-22T01:16:25;18.40;99.90
21090;DHT22;10703;51.020;6.128;2023-06-22T01:18:56;18.40;99.90
21090;DHT22;10703;51.020;6.128;2023-06-22T01:21:25;18.30;99.90
21090;DHT22;10703;51.020;6.128;2023-06-22T01:29:05;18.20;99.90
21090;DHT22;10703;51.020;6.128;2023-06-22T01:31:34;18.30;99.90
21090;DHT22;10703;51.020;6.128;2023-06-22T01:34:05;18.20;99.90
21090;DHT22;10703;51.020;6.128;2023-06-22T01:36:33;18.20;99.90
21090;DHT22;10703;51.020;6.128;2023-06-22T01:39:00;18.20;99.90
21090;DHT22;10703;51.020;6.128;2023-06-22T01:41:30;18.20;99.90
21090;DHT22;10703;51.020;6.128;2023-06-22T01:43:57;18.20;99.90
21090;DHT22;10703;51.020;6.128;2023-06-22T01:46:24;18.20;99.90
21090;DHT22;10703;51.020;6.128;2023-06-22T01:48:51;18.20;99.90
21090;DHT22;10703;51.020;6.128;2023-06-22T01:51:18;18.30;99.90
21090;DHT22;10703;51.020;6.128;2023-06-22T01:53:44;18.30;99.90
21090;DHT22;10703;51.020;6.128;2023-06-22T01:56:12;18.30;99.90
21090;DHT22;10703;51.020;6.128;2023-06-22T02:01:50;18.30;99.90
21090;DHT22;10703;51.020;6.128;2023-06-22T02:04:27;18.30;99.90
21090;DHT22;10703;51.020;6.128;2023-06-22T02:06:57;18.40;99.90
21090;DHT22;10703;51.020;6.128;2023-06-22T02:09:26;18.50;99.90
21090;DHT22;10703;51.020;6.128;2023-06-22T02:11:56;18.60;99.90
21090;DHT22;10703;51.020;6.128;2023-06-22T02:14:24;18.70;99.90
21090;DHT22;10703;51.020;6.128;2023-06-22T02:16:51;18.70;99.90
21090;DHT22;10703;51.020;6.128;2023-06-22T02:19:23;18.80;99.90
21090;DHT22;10703;51.020;6.128;2023-06-22T02:21:50;18.90;99.90
21090;DHT22;10703;51.020;6.128;2023-06-22T02:24:16;18.90;99.90
21090;DHT22;10703;51.020;6.128;2023-06-22T02:26:43;18.90;99.90
21090;DHT22;10703;51.020;6.128;2023-06-22T02:29:11;18.90;99.90
21090;DHT22;10703;51.020;6.128;2023-06-22T02:31:38;19.00;99.90
21090;DHT22;10703;51.020;6.128;2023-06-22T02:34:05;19.00;99.90
21090;DHT22;10703;51.020;6.128;2023-06-22T02:36:32;19.00;99.90
21090;DHT22;10703;51.020;6.128;2023-06-22T02:38:59;19.10;99.90
21090;DHT22;10703;51.020;6.128;2023-06-22T02:41:28;19.10;99.90
21090;DHT22;10703;51.020;6.128;2023-06-22T02:43:54;19.10;99.90
21090;DHT22;10703;51.020;6.128;2023-06-22T02:46:21;19.10;99.90
21090;DHT22;10703;51.020;6.128;2023-06-22T02:48:48;19.20;99.90
21090;DHT22;10703;51.020;6.128;2023-06-22T02:51:15;19.20;99.90
21090;DHT22;10703;51.020;6.128;2023-06-22T02:53:41;19.10;99.90
21090;DHT22;10703;51.020;6.128;2023-06-22T02:56:11;19.10;99.90
21090;DHT22;10703;51.020;6.128;2023-06-22T02:58:39;19.10;99.90
21090;DHT22;10703;51.020;6.128;2023-06-22T03:01:06;19.10;99.90
21090;DHT22;10703;51.020;6.128;2023-06-22T03:03:33;19.10;99.90
21090;DHT22;10703;51.020;6.128;2023-06-22T03:06:00;19.10;99.90
21090;DHT22;10703;51.020;6.128;2023-06-22T03:08:28;19.20;99.90
21090;DHT22;10703;51.020;6.128;2023-06-22T03:10:55;19.10;99.90
21090;DHT22;10703;51.020;6.128;2023-06-22T03:13:22;19.10;99.90
21090;DHT22;10703;51.020;6.128;2023-06-22T03:15:49;19.10;99.90
21090;DHT22;10703;51.020;6.128;2023-06-22T03:18:16;19.10;99.90
21090;DHT22;10703;51.020;6.128;2023-06-22T03:20:42;19.00;99.90
21090;DHT22;10703;51.020;6.128;2023-06-22T03:23:09;19.00;99.90
21090;DHT22;10703;51.020;6.128;2023-06-22T03:25:36;18.90;99.90
21090;DHT22;10703;51.020;6.128;2023-06-22T03:28:02;18.90;99.90
21090;DHT22;10703;51.020;6.128;2023-06-22T03:30:29;18.90;99.90
21090;DHT22;10703;51.020;6.128;2023-06-22T03:32:56;18.80;99.90
21090;DHT22;10703;51.020;6.128;2023-06-22T03:35:23;18.80;99.90
21090;DHT22;10703;51.020;6.128;2023-06-22T03:37:50;18.80;99.90
21090;DHT22;10703;51.020;6.128;2023-06-22T03:40:16;18.80;99.90
21090;DHT22;10703;51.020;6.128;2023-06-22T03:42:43;18.90;99.90
21090;DHT22;10703;51.020;6.128;2023-06-22T03:45:10;18.90;99.90
21090;DHT22;10703;51.020;6.128;2023-06-22T03:47:37;19.10;99.90
21090;DHT22;10703;51.020;6.128;2023-06-22T03:50:04;19.00;99.90
21090;DHT22;10703;51.020;6.128;2023-06-22T03:52:32;19.10;99.90
21090;DHT22;10703;51.020;6.128;2023-06-22T03:54:58;19.10;99.90
21090;DHT22;10703;51.020;6.128;2023-06-22T03:57:25;19.30;99.90
21090;DHT22;10703;51.020;6.128;2023-06-22T03:59:53;19.20;99.90
21090;DHT22;10703;51.020;6.128;2023-06-22T04:02:20;19.30;99.90
21090;DHT22;10703;51.020;6.128;2023-06-22T04:04:47;19.50;99.90
21090;DHT22;10703;51.020;6.128;2023-06-22T04:07:14;19.60;99.90
21090;DHT22;10703;51.020;6.128;2023-06-22T04:09:40;19.50;99.90
21090;DHT22;10703;51.020;6.128;2023-06-22T04:12:07;19.70;99.90
21090;DHT22;10703;51.020;6.128;2023-06-22T04:14:34;19.70;99.90
21090;DHT22;10703;51.020;6.128;2023-06-22T04:17:01;19.70;99.90
21090;DHT22;10703;51.020;6.128;2023-06-22T04:19:28;20.00;99.90
21090;DHT22;10703;51.020;6.128;2023-06-22T04:21:55;19.80;99.90
21090;DHT22;10703;51.020;6.128;2023-06-22T04:24:21;19.80;99.90
21090;DHT22;10703;51.020;6.128;2023-06-22T04:26:48;19.80;99.90
21090;DHT22;10703;51.020;6.128;2023-06-22T04:29:14;19.80;99.90
21090;DHT22;10703;51.020;6.128;2023-06-22T04:31:41;19.90;99.90
21090;DHT22;10703;51.020;6.128;2023-06-22T04:34:08;19.80;99.90
21090;DHT22;10703;51.020;6.128;2023-06-22T04:36:40;19.90;99.90
21090;DHT22;10703;51.020;6.128;2023-06-22T04:39:08;20.00;99.90
21090;DHT22;10703;51.020;6.128;2023-06-22T04:41:37;19.90;99.90
21090;DHT22;10703;51.020;6.128;2023-06-22T04:44:17;20.00;99.90
21090;DHT22;10703;51.020;6.128;2023-06-22T04:46:52;20.00;99.90
21090;DHT22;10703;51.020;6.128;2023-06-22T04:49:21;20.10;99.90
21090;DHT22;10703;51.020;6.128;2023-06-22T04:51:48;20.20;99.90
21090;DHT22;10703;51.020;6.128;2023-06-22T04:54:18;20.20;99.90
21090;DHT22;10703;51.020;6.128;2023-06-22T04:56:44;20.30;99.90
21090;DHT22;10703;51.020;6.128;2023-06-22T04:59:12;20.40;99.90
21090;DHT22;10703;51.020;6.128;2023-06-22T05:01:39;20.50;99.90
21090;DHT22;10703;51.020;6.128;2023-06-22T05:04:06;20.70;99.90
21090;DHT22;10703;51.020;6.128;2023-06-22T05:06:33;20.70;99.90
21090;DHT22;10703;51.020;6.128;2023-06-22T05:09:00;20.90;99.90
21090;DHT22;10703;51.020;6.128;2023-06-22T05:11:27;21.00;99.90
21090;DHT22;10703;51.020;6.128;2023-06-22T05:13:54;21.00;99.90
21090;DHT22;10703;51.020;6.128;2023-06-22T05:16:22;21.10;99.90
21090;DHT22;10703;51.020;6.128;2023-06-22T05:18:54;21.20;99.90
21090;DHT22;10703;51.020;6.128;2023-06-22T05:21:25;21.20;99.90
21090;DHT22;10703;51.020;6.128;2023-06-22T05:23:52;21.30;99.90
21090;DHT22;10703;51.020;6.128;2023-06-22T05:26:20;21.30;99.90
21090;DHT22;10703;51.020;6.128;2023-06-22T05:28:47;21.30;99.90
21090;DHT22;10703;51.020;6.128;2023-06-22T05:31:15;21.30;99.90
21090;DHT22;10703;51.020;6.128;2023-06-22T05:33:43;21.30;99.90
21090;DHT22;10703;51.020;6.128;2023-06-22T05:36:10;21.20;99.90
21090;DHT22;10703;51.020;6.128;2023-06-22T05:38:37;21.20;99.90
21090;DHT22;10703;51.020;6.128;2023-06-22T05:41:04;21.20;99.90
21090;DHT22;10703;51.020;6.128;2023-06-22T05:43:30;21.20;99.90
21090;DHT22;10703;51.020;6.128;2023-06-22T05:45:58;21.30;99.90
21090;DHT22;10703;51.020;6.128;2023-06-22T05:48:24;21.30;99.90
21090;DHT22;10703;51.020;6.128;2023-06-22T05:50:51;21.30;99.90
21090;DHT22;10703;51.020;6.128;2023-06-22T05:53:18;21.40;99.90
21090;DHT22;10703;51.020;6.128;2023-06-22T05:55:45;21.50;99.90
21090;DHT22;10703;51.020;6.128;2023-06-22T05:58:12;21.50;99.90
21090;DHT22;10703;51.020;6.128;2023-06-22T06:00:40;21.50;99.90
21090;DHT22;10703;51.020;6.128;2023-06-22T06:03:08;21.70;99.90
21090;DHT22;10703;51.020;6.128;2023-06-22T06:05:35;21.60;99.90
21090;DHT22;10703;51.020;6.128;2023-06-22T06:08:04;21.70;99.90
21090;DHT22;10703;51.020;6.128;2023-06-22T06:10:34;21.70;99.90
21090;DHT22;10703;51.020;6.128;2023-06-22T06:13:01;21.70;99.90
21090;DHT22;10703;51.020;6.128;2023-06-22T06:15:29;21.80;99.90
21090;DHT22;10703;51.020;6.128;2023-06-22T06:17:56;21.70;99.90
21090;DHT22;10703;51.020;6.128;2023-06-22T06:20:24;21.70;99.90
21090;DHT22;10703;51.020;6.128;2023-06-22T06:22:51;21.90;99.90
21090;DHT22;10703;51.020;6.128;2023-06-22T06:25:18;21.80;99.90
21090;DHT22;10703;51.020;6.128;2023-06-22T06:27:47;21.90;99.90
21090;DHT22;10703;51.020;6.128;2023-06-22T06:30:15;22.10;99.90
21090;DHT22;10703;51.020;6.128;2023-06-22T06:32:44;22.20;99.90
21090;DHT22;10703;51.020;6.128;2023-06-22T06:35:13;22.10;99.90
21090;DHT22;10703;51.020;6.128;2023-06-22T06:37:41;22.10;99.90
21090;DHT22;10703;51.020;6.128;2023-06-22T06:40:10;22.30;99.90
21090;DHT22;10703;51.020;6.128;2023-06-22T06:42:42;22.30;99.90
21090;DHT22;10703;51.020;6.128;2023-06-22T06:45:12;22.40;99.90
21090;DHT22;10703;51.020;6.128;2023-06-22T06:47:39;22.60;99.90
21090;DHT22;10703;51.020;6.128;2023-06-22T06:50:07;22.90;99.90
21090;DHT22;10703;51.020;6.128;2023-06-22T06:52:34;23.00;99.90
21090;DHT22;10703;51.020;6.128;2023-06-22T06:55:04;23.20;99.90
21090;DHT22;10703;51.020;6.128;2023-06-22T06:57:34;23.30;99.90
21090;DHT22;10703;51.020;6.128;2023-06-22T07:00:01;23.30;99.90
21090;DHT22;10703;51.020;6.128;2023-06-22T07:02:27;23.50;99.90
21090;DHT22;10703;51.020;6.128;2023-06-22T07:04:54;23.80;99.90
21090;DHT22;10703;51.020;6.128;2023-06-22T07:07:24;23.90;99.90
21090;DHT22;10703;51.020;6.128;2023-06-22T07:09:50;24.10;99.90
21090;DHT22;10703;51.020;6.128;2023-06-22T07:12:17;24.30;99.90
21090;DHT22;10703;51.020;6.128;2023-06-22T07:14:43;24.50;99.90
21090;DHT22;10703;51.020;6.128;2023-06-22T07:17:10;24.50;99.90
21090;DHT22;10703;51.020;6.128;2023-06-22T07:19:37;24.90;99.90
21090;DHT22;10703;51.020;6.128;2023-06-22T07:22:05;25.00;99.90
21090;DHT22;10703;51.020;6.128;2023-06-22T07:24:31;25.10;99.90
21090;DHT22;10703;51.020;6.128;2023-06-22T07:26:59;25.00;99.90
21090;DHT22;10703;51.020;6.128;2023-06-22T07:29:25;25.30;99.90
21090;DHT22;10703;51.020;6.128;2023-06-22T07:31:53;25.40;99.90
21090;DHT22;10703;51.020;6.128;2023-06-22T07:34:20;25.70;99.90
21090;DHT22;10703;51.020;6.128;2023-06-22T07:36:47;25.90;99.90
21090;DHT22;10703;51.020;6.128;2023-06-22T07:39:14;25.90;99.90
21090;DHT22;10703;51.020;6.128;2023-06-22T07:41:41;26.10;99.90
21090;DHT22;10703;51.020;6.128;2023-06-22T07:44:07;26.50;99.90
21090;DHT22;10703;51.020;6.128;2023-06-22T07:46:34;26.70;99.90
21090;DHT22;10703;51.020;6.128;2023-06-22T07:49:01;27.10;99.90
21090;DHT22;10703;51.020;6.128;2023-06-22T07:51:28;27.20;99.90
21090;DHT22;10703;51.020;6.128;2023-06-22T07:53:55;27.40;99.90
21090;DHT22;10703;51.020;6.128;2023-06-22T07:56:21;27.30;99.90
21090;DHT22;10703;51.020;6.128;2023-06-22T07:58:48;27.40;99.90
21090;DHT22;10703;51.020;6.128;2023-06-22T08:01:15;27.50;99.90
21090;DHT22;10703;51.020;6.128;2023-06-22T08:03:42;27.10;99.90
21090;DHT22;10703;51.020;6.128;2023-06-22T08:06:09;27.10;99.90
21090;DHT22;10703;51.020;6.128;2023-06-22T08:08:36;27.70;99.90
21090;DHT22;10703;51.020;6.128;2023-06-22T08:11:03;27.80;99.90
21090;DHT22;10703;51.020;6.128;2023-06-22T08:13:30;28.20;99.90
21090;DHT22;10703;51.020;6.128;2023-06-22T08:15:56;28.50;99.90
21090;DHT22;10703;51.020;6.128;2023-06-22T08:18:23;28.90;99.90
21090;DHT22;10703;51.020;6.128;2023-06-22T08:20:50;29.10;99.90
21090;DHT22;10703;51.020;6.128;2023-06-22T08:23:17;29.50;99.90
21090;DHT22;10703;51.020;6.128;2023-06-22T08:25:43;29.80;99.90
21090;DHT22;10703;51.020;6.128;2023-06-22T08:28:10;30.30;99.90
21090;DHT22;10703;51.020;6.128;2023-06-22T08:30:37;30.80;99.90
21090;DHT22;10703;51.020;6.128;2023-06-22T08:33:04;31.30;99.90
21090;DHT22;10703;51.020;6.128;2023-06-22T08:35:30;31.30;99.90
21090;DHT22;10703;51.020;6.128;2023-06-22T08:37:57;31.50;99.90
21090;DHT22;10703;51.020;6.128;2023-06-22T08:40:25;31.70;99.90
21090;DHT22;10703;51.020;6.128;2023-06-22T08:42:52;32.20;98.70
21090;DHT22;10703;51.020;6.128;2023-06-22T08:45:19;30.50;99.50
21090;DHT22;10703;51.020;6.128;2023-06-22T08:47:45;30.60;99.90
21090;DHT22;10703;51.020;6.128;2023-06-22T08:50:12;30.60;99.90
21090;DHT22;10703;51.020;6.128;2023-06-22T08:52:40;30.90;99.90
21090;DHT22;10703;51.020;6.128;2023-06-22T08:55:10;30.70;99.90
21090;DHT22;10703;51.020;6.128;2023-06-22T08:57:37;30.60;99.90
21090;DHT22;10703;51.020;6.128;2023-06-22T09:00:08;31.10;99.50
21090;DHT22;10703;51.020;6.128;2023-06-22T09:02:47;31.50;99.50
21090;DHT22;10703;51.020;6.128;2023-06-22T09:05:14;31.60;98.50
21090;DHT22;10703;51.020;6.128;2023-06-22T09:07:41;31.10;99.50
21090;DHT22;10703;51.020;6.128;2023-06-22T09:10:08;31.70;99.40
21090;DHT22;10703;51.020;6.128;2023-06-22T09:12:35;32.00;99.00
21090;DHT22;10703;51.020;6.128;2023-06-22T09:15:04;32.20;98.80
21090;DHT22;10703;51.020;6.128;2023-06-22T09:17:38;32.50;98.10
21090;DHT22;10703;51.020;6.128;2023-06-22T09:20:05;33.60;97.10
21090;DHT22;10703;51.020;6.128;2023-06-22T09:22:33;33.00;96.80
21090;DHT22;10703;51.020;6.128;2023-06-22T09:25:00;33.50;97.20
21090;DHT22;10703;51.020;6.128;2023-06-22T09:27:27;33.10;96.80
21090;DHT22;10703;51.020;6.128;2023-06-22T09:29:54;32.70;97.30
21090;DHT22;10703;51.020;6.128;2023-06-22T09:32:20;33.10;96.90
21090;DHT22;10703;51.020;6.128;2023-06-22T09:34:47;32.90;96.60
21090;DHT22;10703;51.020;6.128;2023-06-22T09:37:14;33.10;97.10
21090;DHT22;10703;51.020;6.128;2023-06-22T09:39:41;32.90;97.30
21090;DHT22;10703;51.020;6.128;2023-06-22T09:42:07;31.80;97.80
21090;DHT22;10703;51.020;6.128;2023-06-22T09:44:34;31.30;98.00
21090;DHT22;10703;51.020;6.128;2023-06-22T09:47:02;30.70;98.90
21090;DHT22;10703;51.020;6.128;2023-06-22T09:49:29;30.60;99.20
21090;DHT22;10703;51.020;6.128;2023-06-22T09:52:13;30.80;99.30
21090;DHT22;10703;51.020;6.128;2023-06-22T09:54:39;30.10;99.30
21090;DHT22;10703;51.020;6.128;2023-06-22T09:57:06;28.80;99.90
21090;DHT22;10703;51.020;6.128;2023-06-22T09:59:33;28.30;99.90
21090;DHT22;10703;51.020;6.128;2023-06-22T10:01:59;28.30;99.90
21090;DHT22;10703;51.020;6.128;2023-06-22T10:04:26;28.20;99.90
21090;DHT22;10703;51.020;6.128;2023-06-22T10:06:54;27.90;99.90
21090;DHT22;10703;51.020;6.128;2023-06-22T10:09:21;27.90;99.90
21090;DHT22;10703;51.020;6.128;2023-06-22T10:11:48;27.80;99.90
21090;DHT22;10703;51.020;6.128;2023-06-22T10:14:14;27.60;99.90
21090;DHT22;10703;51.020;6.128;2023-06-22T10:16:41;26.70;99.90
21090;DHT22;10703;51.020;6.128;2023-06-22T10:19:08;26.30;99.90
21090;DHT22;10703;51.020;6.128;2023-06-22T10:21:35;25.50;99.90
21090;DHT22;10703;51.020;6.128;2023-06-22T10:24:02;24.90;99.90
21090;DHT22;10703;51.020;6.128;2023-06-22T10:26:33;24.40;99.90
21090;DHT22;10703;51.020;6.128;2023-06-22T10:29:00;24.00;99.90
21090;DHT22;10703;51.020;6.128;2023-06-22T10:31:42;23.70;99.90
21090;DHT22;10703;51.020;6.128;2023-06-22T10:34:08;23.40;99.90
21090;DHT22;10703;51.020;6.128;2023-06-22T10:36:35;23.20;99.90
21090;DHT22;10703;51.020;6.128;2023-06-22T10:39:02;23.10;99.90
21090;DHT22;10703;51.020;6.128;2023-06-22T10:41:29;22.90;99.90
21090;DHT22;10703;51.020;6.128;2023-06-22T10:43:57;22.90;99.90
21090;DHT22;10703;51.020;6.128;2023-06-22T10:46:24;22.90;99.90
21090;DHT22;10703;51.020;6.128;2023-06-22T10:48:52;22.80;99.90
21090;DHT22;10703;51.020;6.128;2023-06-22T10:51:21;22.60;99.90
21090;DHT22;10703;51.020;6.128;2023-06-22T10:53:47;22.50;99.90
21090;DHT22;10703;51.020;6.128;2023-06-22T10:56:14;22.50;99.90
21090;DHT22;10703;51.020;6.128;2023-06-22T10:58:40;22.60;99.90
21090;DHT22;10703;51.020;6.128;2023-06-22T11:01:07;22.60;99.90
21090;DHT22;10703;51.020;6.128;2023-06-22T11:03:42;22.70;99.90
21090;DHT22;10703;51.020;6.128;2023-06-22T11:06:09;22.90;99.90
21090;DHT22;10703;51.020;6.128;2023-06-22T11:08:36;23.00;99.90
21090;DHT22;10703;51.020;6.128;2023-06-22T11:11:02;23.10;99.90
21090;DHT22;10703;51.020;6.128;2023-06-22T11:13:29;23.20;99.90
21090;DHT22;10703;51.020;6.128;2023-06-22T11:15:55;23.50;99.90
21090;DHT22;10703;51.020;6.128;2023-06-22T11:18:22;23.80;99.90
21090;DHT22;10703;51.020;6.128;2023-06-22T11:20:49;23.90;99.90
21090;DHT22;10703;51.020;6.128;2023-06-22T11:23:19;24.40;99.90
21090;DHT22;10703;51.020;6.128;2023-06-22T11:25:45;24.80;99.90
21090;DHT22;10703;51.020;6.128;2023-06-22T11:28:13;25.00;99.90
21090;DHT22;10703;51.020;6.128;2023-06-22T11:30:39;25.80;99.90
21090;DHT22;10703;51.020;6.128;2023-06-22T11:33:06;26.70;99.90
21090;DHT22;10703;51.020;6.128;2023-06-22T11:35:33;28.10;99.90
21090;DHT22;10703;51.020;6.128;2023-06-22T11:37:59;29.40;99.90
21090;DHT22;10703;51.020;6.128;2023-06-22T11:40:26;30.30;99.90
21090;DHT22;10703;51.020;6.128;2023-06-22T11:42:53;31.10;99.90
21090;DHT22;10703;51.020;6.128;2023-06-22T11:45:20;31.10;99.90
21090;DHT22;10703;51.020;6.128;2023-06-22T11:47:47;30.50;99.90
21090;DHT22;10703;51.020;6.128;2023-06-22T11:50:14;30.20;99.90
21090;DHT22;10703;51.020;6.128;2023-06-22T11:52:41;29.80;99.90
21090;DHT22;10703;51.020;6.128;2023-06-22T11:55:07;29.20;99.90
21090;DHT22;10703;51.020;6.128;2023-06-22T11:57:36;29.30;99.90
21090;DHT22;10703;51.020;6.128;2023-06-22T12:00:03;29.50;99.90
21090;DHT22;10703;51.020;6.128;2023-06-22T12:02:44;29.60;99.90
21090;DHT22;10703;51.020;6.128;2023-06-22T12:05:14;29.80;99.90
21090;DHT22;10703;51.020;6.128;2023-06-22T12:07:40;30.00;99.90
21090;DHT22;10703;51.020;6.128;2023-06-22T12:10:07;29.50;99.90
21090;DHT22;10703;51.020;6.128;2023-06-22T12:12:34;29.10;99.90
21090;DHT22;10703;51.020;6.128;2023-06-22T12:15:01;28.90;99.90
21090;DHT22;10703;51.020;6.128;2023-06-22T12:17:30;28.90;99.90
21090;DHT22;10703;51.020;6.128;2023-06-22T12:19:57;28.50;99.90
21090;DHT22;10703;51.020;6.128;2023-06-22T12:22:24;28.50;99.90
21090;DHT22;10703;51.020;6.128;2023-06-22T12:24:51;28.50;99.90
21090;DHT22;10703;51.020;6.128;2023-06-22T12:27:17;28.40;99.90
21090;DHT22;10703;51.020;6.128;2023-06-22T12:29:47;28.40;99.90
21090;DHT22;10703;51.020;6.128;2023-06-22T12:32:14;27.90;99.90
21090;DHT22;10703;51.020;6.128;2023-06-22T12:34:42;27.30;99.90
21090;DHT22;10703;51.020;6.128;2023-06-22T12:37:09;27.10;99.90
21090;DHT22;10703;51.020;6.128;2023-06-22T12:39:36;26.80;99.90
21090;DHT22;10703;51.020;6.128;2023-06-22T12:42:03;26.60;99.90
21090;DHT22;10703;51.020;6.128;2023-06-22T12:44:30;26.40;99.90
21090;DHT22;10703;51.020;6.128;2023-06-22T12:46:56;26.10;99.90
21090;DHT22;10703;51.020;6.128;2023-06-22T12:49:23;26.00;99.90
21090;DHT22;10703;51.020;6.128;2023-06-22T12:51:50;26.20;99.90
21090;DHT22;10703;51.020;6.128;2023-06-22T12:54:17;26.40;99.90
21090;DHT22;10703;51.020;6.128;2023-06-22T12:56:43;26.40;99.90
21090;DHT22;10703;51.020;6.128;2023-06-22T12:59:11;26.40;99.90
21090;DHT22;10703;51.020;6.128;2023-06-22T13:01:38;26.50;99.90
21090;DHT22;10703;51.020;6.128;2023-06-22T13:04:04;26.40;99.90
21090;DHT22;10703;51.020;6.128;2023-06-22T13:06:31;26.30;99.90
21090;DHT22;10703;51.020;6.128;2023-06-22T13:08:58;26.00;99.90
21090;DHT22;10703;51.020;6.128;2023-06-22T13:11:45;26.00;99.90
21090;DHT22;10703;51.020;6.128;2023-06-22T13:14:11;25.80;99.90
21090;DHT22;10703;51.020;6.128;2023-06-22T13:16:38;25.80;99.90
21090;DHT22;10703;51.020;6.128;2023-06-22T13:19:05;25.90;99.90
21090;DHT22;10703;51.020;6.128;2023-06-22T13:21:34;25.80;99.90
21090;DHT22;10703;51.020;6.128;2023-06-22T13:24:00;25.60;99.90
21090;DHT22;10703;51.020;6.128;2023-06-22T13:26:27;25.70;99.90
21090;DHT22;10703;51.020;6.128;2023-06-22T13:28:57;25.60;99.90
21090;DHT22;10703;51.020;6.128;2023-06-22T13:31:24;25.50;99.90
21090;DHT22;10703;51.020;6.128;2023-06-22T13:33:51;25.20;99.90
21090;DHT22;10703;51.020;6.128;2023-06-22T13:36:18;25.30;99.90
21090;DHT22;10703;51.020;6.128;2023-06-22T13:38:46;25.20;99.90
21090;DHT22;10703;51.020;6.128;2023-06-22T13:41:12;25.20;99.90
21090;DHT22;10703;51.020;6.128;2023-06-22T13:43:39;24.90;99.90
21090;DHT22;10703;51.020;6.128;2023-06-22T13:46:06;24.80;99.90
21090;DHT22;10703;51.020;6.128;2023-06-22T13:48:32;24.80;99.90
21090;DHT22;10703;51.020;6.128;2023-06-22T13:50:59;24.70;99.90
21090;DHT22;10703;51.020;6.128;2023-06-22T13:53:26;24.50;99.90
21090;DHT22;10703;51.020;6.128;2023-06-22T13:55:52;24.50;99.90
21090;DHT22;10703;51.020;6.128;2023-06-22T13:58:19;24.30;99.90
21090;DHT22;10703;51.020;6.128;2023-06-22T14:00:48;24.00;99.90
21090;DHT22;10703;51.020;6.128;2023-06-22T14:03:15;23.80;99.90
21090;DHT22;10703;51.020;6.128;2023-06-22T14:05:44;23.70;99.90
21090;DHT22;10703;51.020;6.128;2023-06-22T14:08:12;23.80;99.90
21090;DHT22;10703;51.020;6.128;2023-06-22T14:10:58;23.70;99.90
21090;DHT22;10703;51.020;6.128;2023-06-22T14:13:25;23.70;99.90
21090;DHT22;10703;51.020;6.128;2023-06-22T14:15:51;23.50;99.90
21090;DHT22;10703;51.020;6.128;2023-06-22T14:18:20;23.20;99.90
21090;DHT22;10703;51.020;6.128;2023-06-22T14:20:49;23.10;99.90
21090;DHT22;10703;51.020;6.128;2023-06-22T14:23:15;22.90;99.90
21090;DHT22;10703;51.020;6.128;2023-06-22T14:25:42;22.80;99.90
21090;DHT22;10703;51.020;6.128;2023-06-22T14:28:09;22.80;99.90
21090;DHT22;10703;51.020;6.128;2023-06-22T14:30:35;22.40;99.90
21090;DHT22;10703;51.020;6.128;2023-06-22T14:33:02;22.10;99.90
21090;DHT22;10703;51.020;6.128;2023-06-22T14:35:29;22.00;99.90
21090;DHT22;10703;51.020;6.128;2023-06-22T14:37:55;21.70;99.90
21090;DHT22;10703;51.020;6.128;2023-06-22T14:40:22;21.60;99.90
21090;DHT22;10703;51.020;6.128;2023-06-22T14:42:52;21.60;99.90
21090;DHT22;10703;51.020;6.128;2023-06-22T14:45:18;21.50;99.90
21090;DHT22;10703;51.020;6.128;2023-06-22T14:47:45;21.30;99.90
21090;DHT22;10703;51.020;6.128;2023-06-22T14:50:12;21.20;99.90
21090;DHT22;10703;51.020;6.128;2023-06-22T14:52:40;20.90;99.90
21090;DHT22;10703;51.020;6.128;2023-06-22T14:55:07;20.70;99.90
21090;DHT22;10703;51.020;6.128;2023-06-22T14:57:34;20.60;99.90
21090;DHT22;10703;51.020;6.128;2023-06-22T15:00:01;20.50;99.90
21090;DHT22;10703;51.020;6.128;2023-06-22T15:02:29;20.40;99.90
21090;DHT22;10703;51.020;6.128;2023-06-22T15:04:55;20.30;99.90
21090;DHT22;10703;51.020;6.128;2023-06-22T15:07:22;20.30;99.90
21090;DHT22;10703;51.020;6.128;2023-06-22T15:09:49;20.20;99.90
21090;DHT22;10703;51.020;6.128;2023-06-22T15:12:15;20.20;99.90
21090;DHT22;10703;51.020;6.128;2023-06-22T15:14:42;20.20;99.90
21090;DHT22;10703;51.020;6.128;2023-06-22T15:17:09;20.00;99.90
21090;DHT22;10703;51.020;6.128;2023-06-22T15:19:36;20.00;99.90
21090;DHT22;10703;51.020;6.128;2023-06-22T15:22:07;20.00;99.90
21090;DHT22;10703;51.020;6.128;2023-06-22T15:24:34;19.90;99.90
21090;DHT22;10703;51.020;6.128;2023-06-22T15:27:01;19.90;99.90
21090;DHT22;10703;51.020;6.128;2023-06-22T15:29:27;19.90;99.90
21090;DHT22;10703;51.020;6.128;2023-06-22T15:31:56;19.80;99.90
21090;DHT22;10703;51.020;6.128;2023-06-22T15:34:23;19.80;99.90
21090;DHT22;10703;51.020;6.128;2023-06-22T15:36:49;19.70;99.90
21090;DHT22;10703;51.020;6.128;2023-06-22T15:39:18;19.60;99.90
21090;DHT22;10703;51.020;6.128;2023-06-22T15:41:45;19.50;99.90
21090;DHT22;10703;51.020;6.128;2023-06-22T15:44:11;19.60;99.90
21090;DHT22;10703;51.020;6.128;2023-06-22T15:46:38;19.50;99.90